sensor_id;sensor_type;location;lat;lon;timestamp;P1;durP1;ratioP1;P2;durP2;ratioP2
27802;SDS011;15182;48.174;11.562;2024-03-23T00:54:10;2.57;;;2.47;;
27802;SDS011;15182;48.174;11.562;2024-03-23T00:56:38;2.07;;;1.97;;
27802;SDS011;15182;48.174;11.562;2024-03-23T00:59:05;2.53;;;2.43;;
27802;SDS011;15182;48.174;11.562;2024-03-23T01:01:33;2.53;;;2.50;;
27802;SDS011;15182;48.174;11.562;2024-03-23T01:03:59;2.23;;;2.23;;
27802;SDS011;15182;48.174;11.562;2024-03-23T01:06:27;2.50;;;2.40;;
27802;SDS011;15182;48.174;11.562;2024-03-23T01:08:54;1.90;;;1.90;;
27802;SDS011;15182;48.174;11.562;2024-03-23T01:11:23;2.50;;;2.50;;
27802;SDS011;15182;48.174;11.562;2024-03-23T01:13:50;2.43;;;2.33;;
27802;SDS011;15182;48.174;11.562;2024-03-23T01:16:20;2.53;;;2.33;;
27802;SDS011;15182;48.174;11.562;2024-03-23T01:18:47;2.10;;;2.10;;
27802;SDS011;15182;48.174;11.562;2024-03-23T01:21:15;2.33;;;2.33;;
27802;SDS011;15182;48.174;11.562;2024-03-23T01:23:43;2.47;;;2.30;;
27802;SDS011;15182;48.174;11.562;2024-03-23T01:26:10;2.50;;;2.33;;
27802;SDS011;15182;48.174;11.562;2024-03-23T01:28:39;3.03;;;2.60;;
27802;SDS011;15182;48.174;11.562;2024-03-23T01:31:07;2.40;;;2.40;;
27802;SDS011;15182;48.174;11.562;2024-03-23T01:33:33;2.50;;;2.40;;
27802;SDS011;15182;48.174;11.562;2024-03-23T01:36:01;2.53;;;2.43;;
27802;SDS011;15182;48.174;11.562;2024-03-23T01:38:28;2.60;;;2.50;;
27802;SDS011;15182;48.174;11.562;2024-03-23T01:40:57;2.40;;;2.30;;
27802;SDS011;15182;48.174;11.562;2024-03-23T01:43:24;2.30;;;2.20;;
27802;SDS011;15182;48.174;11.562;2024-03-23T01:45:53;2.40;;;2.40;;
27802;SDS011;15182;48.174;11.562;2024-03-23T01:48:20;2.37;;;2.30;;
27802;SDS011;15182;48.174;11.562;2024-03-23T01:50:49;2.80;;;2.70;;
27802;SDS011;15182;48.174;11.562;2024-03-23T01:53:15;2.40;;;2.30;;
27802;SDS011;15182;48.174;11.562;2024-03-23T01:55:47;2.20;;;2.20;;
27802;SDS011;15182;48.174;11.562;2024-03-23T01:58:14;2.93;;;2.60;;
27802;SDS011;15182;48.174;11.562;2024-03-23T02:00:41;2.20;;;2.20;;
27802;SDS011;15182;48.174;11.562;2024-03-23T02:03:23;2.50;;;2.50;;
27802;SDS011;15182;48.174;11.562;2024-03-23T02:05:51;2.37;;;2.27;;
27802;SDS011;15182;48.174;11.562;2024-03-23T02:08:20;2.80;;;2.70;;
27802;SDS011;15182;48.174;11.562;2024-03-23T02:10:50;2.40;;;2.40;;
27802;SDS011;15182;48.174;11.562;2024-03-23T02:13:17;2.40;;;2.40;;
27802;SDS011;15182;48.174;11.562;2024-03-23T02:15:46;2.30;;;2.30;;
27802;SDS011;15182;48.174;11.562;2024-03-23T02:18:13;2.23;;;2.23;;
27802;SDS011;15182;48.174;11.562;2024-03-23T02:20:43;2.13;;;2.13;;
27802;SDS011;15182;48.174;11.562;2024-03-23T02:23:14;2.17;;;2.17;;
27802;SDS011;15182;48.174;11.562;2024-03-23T02:25:42;2.50;;;2.50;;
27802;SDS011;15182;48.174;11.562;2024-03-23T02:28:09;2.20;;;2.10;;
27802;SDS011;15182;48.174;11.562;2024-03-23T02:30:37;2.07;;;2.07;;
27802;SDS011;15182;48.174;11.562;2024-03-23T02:33:04;2.70;;;2.70;;
27802;SDS011;15182;48.174;11.562;2024-03-23T02:35:32;2.53;;;2.53;;
27802;SDS011;15182;48.174;11.562;2024-03-23T02:37:59;2.87;;;2.87;;
27802;SDS011;15182;48.174;11.562;2024-03-23T02:40:29;2.80;;;2.60;;
27802;SDS011;15182;48.174;11.562;2024-03-23T02:42:56;2.50;;;2.50;;
27802;SDS011;15182;48.174;11.562;2024-03-23T02:45:23;2.93;;;2.70;;
27802;SDS011;15182;48.174;11.562;2024-03-23T02:47:51;8.03;;;2.67;;
27802;SDS011;15182;48.174;11.562;2024-03-23T02:50:18;2.30;;;2.10;;
27802;SDS011;15182;48.174;11.562;2024-03-23T02:52:46;2.40;;;2.30;;
27802;SDS011;15182;48.174;11.562;2024-03-23T02:55:13;2.87;;;2.67;;
27802;SDS011;15182;48.174;11.562;2024-03-23T02:57:43;2.47;;;2.40;;
27802;SDS011;15182;48.174;11.562;2024-03-23T03:00:10;2.13;;;2.00;;
27802;SDS011;15182;48.174;11.562;2024-03-23T03:02:38;2.20;;;2.20;;
27802;SDS011;15182;48.174;11.562;2024-03-23T03:05:06;3.53;;;2.57;;
27802;SDS011;15182;48.174;11.562;2024-03-23T03:07:34;2.53;;;2.40;;
27802;SDS011;15182;48.174;11.562;2024-03-23T03:10:04;2.47;;;2.27;;
27802;SDS011;15182;48.174;11.562;2024-03-23T03:12:34;2.50;;;2.40;;
27802;SDS011;15182;48.174;11.562;2024-03-23T03:15:03;2.60;;;2.50;;
27802;SDS011;15182;48.174;11.562;2024-03-23T03:17:31;2.47;;;2.27;;
27802;SDS011;15182;48.174;11.562;2024-03-23T03:19:58;2.33;;;2.30;;
27802;SDS011;15182;48.174;11.562;2024-03-23T03:22:26;2.40;;;2.40;;
27802;SDS011;15182;48.174;11.562;2024-03-23T03:24:53;3.20;;;2.50;;
27802;SDS011;15182;48.174;11.562;2024-03-23T03:27:21;2.97;;;2.40;;
27802;SDS011;15182;48.174;11.562;2024-03-23T03:29:48;2.77;;;2.70;;
27802;SDS011;15182;48.174;11.562;2024-03-23T03:32:18;2.40;;;2.30;;
27802;SDS011;15182;48.174;11.562;2024-03-23T03:34:44;2.43;;;2.43;;
27802;SDS011;15182;48.174;11.562;2024-03-23T03:37:12;2.20;;;2.20;;
27802;SDS011;15182;48.174;11.562;2024-03-23T03:39:39;2.67;;;2.30;;
27802;SDS011;15182;48.174;11.562;2024-03-23T03:42:07;2.30;;;2.30;;
27802;SDS011;15182;48.174;11.562;2024-03-23T03:44:33;2.10;;;2.10;;
27802;SDS011;15182;48.174;11.562;2024-03-23T03:47:02;2.50;;;2.40;;
27802;SDS011;15182;48.174;11.562;2024-03-23T03:49:32;2.80;;;2.70;;
27802;SDS011;15182;48.174;11.562;2024-03-23T03:52:00;2.70;;;2.60;;
27802;SDS011;15182;48.174;11.562;2024-03-23T03:54:28;2.70;;;2.60;;
27802;SDS011;15182;48.174;11.562;2024-03-23T03:56:56;3.43;;;2.50;;
27802;SDS011;15182;48.174;11.562;2024-03-23T03:59:22;2.43;;;2.43;;
27802;SDS011;15182;48.174;11.562;2024-03-23T04:01:50;2.03;;;2.03;;
27802;SDS011;15182;48.174;11.562;2024-03-23T04:04:17;2.43;;;2.43;;
27802;SDS011;15182;48.174;11.562;2024-03-23T04:06:47;2.40;;;2.30;;
27802;SDS011;15182;48.174;11.562;2024-03-23T04:09:14;2.20;;;2.20;;
27802;SDS011;15182;48.174;11.562;2024-03-23T04:11:42;2.47;;;2.37;;
27802;SDS011;15182;48.174;11.562;2024-03-23T04:14:09;2.30;;;2.30;;
27802;SDS011;15182;48.174;11.562;2024-03-23T04:16:37;2.70;;;2.60;;
27802;SDS011;15182;48.174;11.562;2024-03-23T04:19:04;2.43;;;2.43;;
27802;SDS011;15182;48.174;11.562;2024-03-23T04:21:33;3.03;;;2.47;;
27802;SDS011;15182;48.174;11.562;2024-03-23T04:24:01;2.53;;;2.53;;
27802;SDS011;15182;48.174;11.562;2024-03-23T04:26:29;2.60;;;2.60;;
27802;SDS011;15182;48.174;11.562;2024-03-23T04:28:56;2.30;;;2.20;;
27802;SDS011;15182;48.174;11.562;2024-03-23T04:31:24;2.47;;;2.37;;
27802;SDS011;15182;48.174;11.562;2024-03-23T04:33:51;2.30;;;2.20;;
27802;SDS011;15182;48.174;11.562;2024-03-23T04:36:19;2.40;;;2.40;;
27802;SDS011;15182;48.174;11.562;2024-03-23T04:38:46;2.30;;;2.20;;
27802;SDS011;15182;48.174;11.562;2024-03-23T04:41:17;2.70;;;2.13;;
27802;SDS011;15182;48.174;11.562;2024-03-23T04:43:45;2.10;;;2.10;;
27802;SDS011;15182;48.174;11.562;2024-03-23T04:46:13;2.30;;;2.30;;
27802;SDS011;15182;48.174;11.562;2024-03-23T04:48:41;2.30;;;2.30;;
27802;SDS011;15182;48.174;11.562;2024-03-23T04:51:10;2.40;;;2.40;;
27802;SDS011;15182;48.174;11.562;2024-03-23T04:53:38;3.37;;;2.23;;
27802;SDS011;15182;48.174;11.562;2024-03-23T04:56:06;2.90;;;2.70;;
27802;SDS011;15182;48.174;11.562;2024-03-23T04:58:34;2.70;;;2.40;;
27802;SDS011;15182;48.174;11.562;2024-03-23T05:01:02;2.50;;;2.50;;
27802;SDS011;15182;48.174;11.562;2024-03-23T05:03:29;2.20;;;2.20;;
27802;SDS011;15182;48.174;11.562;2024-03-23T05:05:57;2.30;;;2.30;;
27802;SDS011;15182;48.174;11.562;2024-03-23T05:08:24;2.30;;;2.30;;
27802;SDS011;15182;48.174;11.562;2024-03-23T05:10:52;2.30;;;2.30;;
27802;SDS011;15182;48.174;11.562;2024-03-23T05:13:18;2.50;;;2.50;;
27802;SDS011;15182;48.174;11.562;2024-03-23T05:15:52;2.60;;;2.60;;
27802;SDS011;15182;48.174;11.562;2024-03-23T05:18:19;2.57;;;2.57;;
27802;SDS011;15182;48.174;11.562;2024-03-23T05:20:47;2.60;;;2.50;;
27802;SDS011;15182;48.174;11.562;2024-03-23T05:23:14;4.37;;;2.43;;
27802;SDS011;15182;48.174;11.562;2024-03-23T05:25:42;2.40;;;2.40;;
27802;SDS011;15182;48.174;11.562;2024-03-23T05:28:09;2.00;;;2.00;;
27802;SDS011;15182;48.174;11.562;2024-03-23T05:30:37;2.43;;;2.33;;
27802;SDS011;15182;48.174;11.562;2024-03-23T05:33:05;2.27;;;2.27;;
27802;SDS011;15182;48.174;11.562;2024-03-23T05:35:33;2.10;;;2.10;;
27802;SDS011;15182;48.174;11.562;2024-03-23T05:38:00;2.50;;;2.40;;
27802;SDS011;15182;48.174;11.562;2024-03-23T05:40:28;2.27;;;2.27;;
27802;SDS011;15182;48.174;11.562;2024-03-23T05:42:55;2.20;;;2.20;;
27802;SDS011;15182;48.174;11.562;2024-03-23T05:45:23;2.33;;;2.23;;
27802;SDS011;15182;48.174;11.562;2024-03-23T05:47:50;2.70;;;2.60;;
27802;SDS011;15182;48.174;11.562;2024-03-23T05:50:19;3.00;;;2.80;;
27802;SDS011;15182;48.174;11.562;2024-03-23T05:52:46;2.50;;;2.50;;
27802;SDS011;15182;48.174;11.562;2024-03-23T05:55:14;2.50;;;2.50;;
27802;SDS011;15182;48.174;11.562;2024-03-23T05:57:41;2.37;;;2.37;;
27802;SDS011;15182;48.174;11.562;2024-03-23T06:00:09;2.50;;;2.50;;
27802;SDS011;15182;48.174;11.562;2024-03-23T06:02:41;2.30;;;2.30;;
27802;SDS011;15182;48.174;11.562;2024-03-23T06:05:11;2.23;;;2.23;;
27802;SDS011;15182;48.174;11.562;2024-03-23T06:07:39;2.50;;;2.40;;
27802;SDS011;15182;48.174;11.562;2024-03-23T06:10:07;2.43;;;2.33;;
27802;SDS011;15182;48.174;11.562;2024-03-23T06:12:35;2.20;;;2.20;;
27802;SDS011;15182;48.174;11.562;2024-03-23T06:15:03;4.87;;;2.77;;
27802;SDS011;15182;48.174;11.562;2024-03-23T06:17:32;2.37;;;2.30;;
27802;SDS011;15182;48.174;11.562;2024-03-23T06:20:00;2.50;;;2.50;;
27802;SDS011;15182;48.174;11.562;2024-03-23T06:22:27;2.93;;;2.83;;
27802;SDS011;15182;48.174;11.562;2024-03-23T06:24:56;2.40;;;2.40;;
27802;SDS011;15182;48.174;11.562;2024-03-23T06:27:23;2.20;;;2.20;;
27802;SDS011;15182;48.174;11.562;2024-03-23T06:29:51;2.50;;;2.50;;
27802;SDS011;15182;48.174;11.562;2024-03-23T06:32:18;2.47;;;2.37;;
27802;SDS011;15182;48.174;11.562;2024-03-23T06:34:46;2.20;;;2.20;;
27802;SDS011;15182;48.174;11.562;2024-03-23T06:37:12;2.33;;;2.27;;
27802;SDS011;15182;48.174;11.562;2024-03-23T06:39:40;2.30;;;2.30;;
27802;SDS011;15182;48.174;11.562;2024-03-23T06:42:08;2.27;;;2.27;;
27802;SDS011;15182;48.174;11.562;2024-03-23T06:44:36;7.83;;;2.33;;
27802;SDS011;15182;48.174;11.562;2024-03-23T06:47:03;2.17;;;2.17;;
27802;SDS011;15182;48.174;11.562;2024-03-23T06:49:31;1.87;;;1.87;;
27802;SDS011;15182;48.174;11.562;2024-03-23T06:51:58;2.27;;;2.27;;
27802;SDS011;15182;48.174;11.562;2024-03-23T06:54:26;2.03;;;2.00;;
27802;SDS011;15182;48.174;11.562;2024-03-23T06:56:53;2.30;;;2.30;;
27802;SDS011;15182;48.174;11.562;2024-03-23T06:59:22;2.50;;;2.43;;
27802;SDS011;15182;48.174;11.562;2024-03-23T07:01:49;2.53;;;2.40;;
27802;SDS011;15182;48.174;11.562;2024-03-23T07:04:17;2.20;;;2.20;;
27802;SDS011;15182;48.174;11.562;2024-03-23T07:06:44;18.77;;;2.67;;
27802;SDS011;15182;48.174;11.562;2024-03-23T07:17:22;2.20;;;2.20;;
27802;SDS011;15182;48.174;11.562;2024-03-23T07:19:50;2.60;;;2.50;;
27802;SDS011;15182;48.174;11.562;2024-03-23T07:22:16;2.40;;;2.30;;
27802;SDS011;15182;48.174;11.562;2024-03-23T07:24:44;2.40;;;2.30;;
27802;SDS011;15182;48.174;11.562;2024-03-23T07:27:12;2.50;;;2.40;;
27802;SDS011;15182;48.174;11.562;2024-03-23T07:29:39;2.07;;;2.07;;
27802;SDS011;15182;48.174;11.562;2024-03-23T07:32:06;2.70;;;2.60;;
27802;SDS011;15182;48.174;11.562;2024-03-23T07:34:35;3.53;;;2.27;;
27802;SDS011;15182;48.174;11.562;2024-03-23T07:37:11;2.40;;;2.20;;
27802;SDS011;15182;48.174;11.562;2024-03-23T07:40:11;1.93;;;1.93;;
27802;SDS011;15182;48.174;11.562;2024-03-23T07:42:38;2.80;;;2.60;;
27802;SDS011;15182;48.174;11.562;2024-03-23T07:45:06;6.23;;;2.70;;
27802;SDS011;15182;48.174;11.562;2024-03-23T07:47:35;2.20;;;2.03;;
27802;SDS011;15182;48.174;11.562;2024-03-23T07:50:04;2.43;;;2.30;;
27802;SDS011;15182;48.174;11.562;2024-03-23T07:52:32;2.40;;;2.30;;
27802;SDS011;15182;48.174;11.562;2024-03-23T07:55:00;2.40;;;2.40;;
27802;SDS011;15182;48.174;11.562;2024-03-23T07:57:27;2.63;;;2.47;;
27802;SDS011;15182;48.174;11.562;2024-03-23T07:59:55;2.57;;;2.57;;
27802;SDS011;15182;48.174;11.562;2024-03-23T08:02:22;2.00;;;2.00;;
27802;SDS011;15182;48.174;11.562;2024-03-23T08:04:50;2.43;;;2.30;;
27802;SDS011;15182;48.174;11.562;2024-03-23T08:07:18;2.90;;;2.70;;
27802;SDS011;15182;48.174;11.562;2024-03-23T08:09:46;2.70;;;2.60;;
27802;SDS011;15182;48.174;11.562;2024-03-23T08:12:12;2.83;;;2.63;;
27802;SDS011;15182;48.174;11.562;2024-03-23T08:14:40;2.57;;;2.47;;
27802;SDS011;15182;48.174;11.562;2024-03-23T08:17:07;2.70;;;2.43;;
27802;SDS011;15182;48.174;11.562;2024-03-23T08:19:35;2.77;;;2.63;;
27802;SDS011;15182;48.174;11.562;2024-03-23T08:22:02;2.80;;;2.80;;
27802;SDS011;15182;48.174;11.562;2024-03-23T08:24:31;2.80;;;2.80;;
27802;SDS011;15182;48.174;11.562;2024-03-23T08:26:58;3.27;;;2.83;;
27802;SDS011;15182;48.174;11.562;2024-03-23T08:29:26;2.67;;;2.47;;
27802;SDS011;15182;48.174;11.562;2024-03-23T08:31:53;2.73;;;2.63;;
27802;SDS011;15182;48.174;11.562;2024-03-23T08:34:20;2.30;;;2.30;;
27802;SDS011;15182;48.174;11.562;2024-03-23T08:36:47;2.60;;;2.50;;
27802;SDS011;15182;48.174;11.562;2024-03-23T08:39:15;2.43;;;2.33;;
27802;SDS011;15182;48.174;11.562;2024-03-23T08:41:43;2.60;;;2.60;;
27802;SDS011;15182;48.174;11.562;2024-03-23T08:44:12;3.30;;;2.47;;
27802;SDS011;15182;48.174;11.562;2024-03-23T08:46:38;2.20;;;2.20;;
27802;SDS011;15182;48.174;11.562;2024-03-23T08:49:06;2.43;;;2.23;;
27802;SDS011;15182;48.174;11.562;2024-03-23T08:51:33;2.23;;;2.23;;
27802;SDS011;15182;48.174;11.562;2024-03-23T08:54:00;2.47;;;2.33;;
27802;SDS011;15182;48.174;11.562;2024-03-23T08:56:28;2.70;;;2.60;;
27802;SDS011;15182;48.174;11.562;2024-03-23T08:58:57;2.30;;;2.30;;
27802;SDS011;15182;48.174;11.562;2024-03-23T09:01:23;2.50;;;2.23;;
27802;SDS011;15182;48.174;11.562;2024-03-23T09:03:51;2.27;;;2.20;;
27802;SDS011;15182;48.174;11.562;2024-03-23T09:06:18;2.27;;;2.27;;
27802;SDS011;15182;48.174;11.562;2024-03-23T09:08:45;2.53;;;2.53;;
27802;SDS011;15182;48.174;11.562;2024-03-23T09:11:12;2.77;;;2.77;;
27802;SDS011;15182;48.174;11.562;2024-03-23T09:13:40;2.40;;;2.40;;
27802;SDS011;15182;48.174;11.562;2024-03-23T09:16:09;2.30;;;2.30;;
27802;SDS011;15182;48.174;11.562;2024-03-23T09:18:36;2.60;;;2.60;;
27802;SDS011;15182;48.174;11.562;2024-03-23T09:21:06;3.00;;;2.80;;
27802;SDS011;15182;48.174;11.562;2024-03-23T09:23:39;2.67;;;2.67;;
27802;SDS011;15182;48.174;11.562;2024-03-23T09:26:05;2.80;;;2.60;;
27802;SDS011;15182;48.174;11.562;2024-03-23T09:28:34;3.30;;;3.10;;
27802;SDS011;15182;48.174;11.562;2024-03-23T09:31:04;2.50;;;2.50;;
27802;SDS011;15182;48.174;11.562;2024-03-23T09:33:33;2.43;;;2.43;;
27802;SDS011;15182;48.174;11.562;2024-03-23T09:36:03;3.00;;;3.00;;
27802;SDS011;15182;48.174;11.562;2024-03-23T09:38:32;2.93;;;2.93;;
27802;SDS011;15182;48.174;11.562;2024-03-23T09:40:59;3.00;;;2.90;;
27802;SDS011;15182;48.174;11.562;2024-03-23T09:43:27;2.23;;;2.23;;
27802;SDS011;15182;48.174;11.562;2024-03-23T09:45:54;2.40;;;2.40;;
27802;SDS011;15182;48.174;11.562;2024-03-23T09:48:22;2.53;;;2.53;;
27802;SDS011;15182;48.174;11.562;2024-03-23T09:50:50;2.27;;;2.27;;
27802;SDS011;15182;48.174;11.562;2024-03-23T09:53:18;2.37;;;2.37;;
27802;SDS011;15182;48.174;11.562;2024-03-23T09:55:44;2.50;;;2.40;;
27802;SDS011;15182;48.174;11.562;2024-03-23T09:58:13;2.43;;;2.40;;
27802;SDS011;15182;48.174;11.562;2024-03-23T10:00:41;2.83;;;2.83;;
27802;SDS011;15182;48.174;11.562;2024-03-23T10:03:09;2.33;;;2.33;;
27802;SDS011;15182;48.174;11.562;2024-03-23T10:05:37;2.23;;;2.13;;
27802;SDS011;15182;48.174;11.562;2024-03-23T10:08:18;2.23;;;2.23;;
27802;SDS011;15182;48.174;11.562;2024-03-23T10:10:45;2.70;;;2.70;;
27802;SDS011;15182;48.174;11.562;2024-03-23T10:13:23;2.27;;;2.27;;
27802;SDS011;15182;48.174;11.562;2024-03-23T10:15:57;2.23;;;2.23;;
27802;SDS011;15182;48.174;11.562;2024-03-23T10:18:26;2.20;;;2.00;;
27802;SDS011;15182;48.174;11.562;2024-03-23T10:21:06;2.33;;;2.33;;
27802;SDS011;15182;48.174;11.562;2024-03-23T10:23:40;4.13;;;2.23;;
27802;SDS011;15182;48.174;11.562;2024-03-23T10:26:12;2.60;;;2.50;;
27802;SDS011;15182;48.174;11.562;2024-03-23T10:28:54;3.03;;;2.40;;
27802;SDS011;15182;48.174;11.562;2024-03-23T10:31:24;2.10;;;2.10;;
27802;SDS011;15182;48.174;11.562;2024-03-23T10:33:52;2.97;;;2.60;;
27802;SDS011;15182;48.174;11.562;2024-03-23T10:36:20;2.20;;;2.20;;
27802;SDS011;15182;48.174;11.562;2024-03-23T10:38:50;2.20;;;2.20;;
27802;SDS011;15182;48.174;11.562;2024-03-23T10:41:18;2.10;;;2.10;;
27802;SDS011;15182;48.174;11.562;2024-03-23T10:43:46;2.30;;;2.30;;
27802;SDS011;15182;48.174;11.562;2024-03-23T10:46:14;2.40;;;2.30;;
27802;SDS011;15182;48.174;11.562;2024-03-23T10:48:43;2.50;;;2.43;;
27802;SDS011;15182;48.174;11.562;2024-03-23T10:51:10;2.23;;;2.23;;
27802;SDS011;15182;48.174;11.562;2024-03-23T10:53:39;2.00;;;2.00;;
27802;SDS011;15182;48.174;11.562;2024-03-23T10:56:07;2.33;;;2.33;;
27802;SDS011;15182;48.174;11.562;2024-03-23T10:58:38;2.13;;;2.13;;
27802;SDS011;15182;48.174;11.562;2024-03-23T11:01:06;2.10;;;2.10;;
27802;SDS011;15182;48.174;11.562;2024-03-23T11:03:38;2.23;;;2.23;;
27802;SDS011;15182;48.174;11.562;2024-03-23T11:06:07;2.30;;;2.30;;
27802;SDS011;15182;48.174;11.562;2024-03-23T11:08:36;2.50;;;2.50;;
27802;SDS011;15182;48.174;11.562;2024-03-23T11:11:18;1.97;;;1.97;;
27802;SDS011;15182;48.174;11.562;2024-03-23T11:13:47;2.23;;;2.23;;
27802;SDS011;15182;48.174;11.562;2024-03-23T11:16:16;3.03;;;2.93;;
27802;SDS011;15182;48.174;11.562;2024-03-23T11:18:49;2.73;;;2.63;;
27802;SDS011;15182;48.174;11.562;2024-03-23T11:24:19;6.53;;;2.90;;
27802;SDS011;15182;48.174;11.562;2024-03-23T11:26:49;2.40;;;2.40;;
27802;SDS011;15182;48.174;11.562;2024-03-23T11:29:17;2.20;;;2.20;;
27802;SDS011;15182;48.174;11.562;2024-03-23T11:31:46;2.50;;;2.40;;
27802;SDS011;15182;48.174;11.562;2024-03-23T11:34:15;2.00;;;2.00;;
27802;SDS011;15182;48.174;11.562;2024-03-23T11:36:42;1.93;;;1.93;;
27802;SDS011;15182;48.174;11.562;2024-03-23T11:39:13;2.10;;;2.10;;
27802;SDS011;15182;48.174;11.562;2024-03-23T11:41:49;2.13;;;2.13;;
27802;SDS011;15182;48.174;11.562;2024-03-23T11:44:19;2.40;;;2.40;;
27802;SDS011;15182;48.174;11.562;2024-03-23T11:46:48;2.20;;;2.20;;
27802;SDS011;15182;48.174;11.562;2024-03-23T11:49:23;2.40;;;2.30;;
27802;SDS011;15182;48.174;11.562;2024-03-23T11:51:52;2.33;;;2.33;;
27802;SDS011;15182;48.174;11.562;2024-03-23T11:54:22;2.57;;;2.47;;
27802;SDS011;15182;48.174;11.562;2024-03-23T11:56:55;2.30;;;2.30;;
27802;SDS011;15182;48.174;11.562;2024-03-23T11:59:30;2.53;;;2.53;;
27802;SDS011;15182;48.174;11.562;2024-03-23T12:02:00;2.53;;;2.43;;
27802;SDS011;15182;48.174;11.562;2024-03-23T12:04:33;2.50;;;2.40;;
27802;SDS011;15182;48.174;11.562;2024-03-23T12:07:09;2.53;;;2.53;;
27802;SDS011;15182;48.174;11.562;2024-03-23T12:09:39;2.30;;;2.30;;
27802;SDS011;15182;48.174;11.562;2024-03-23T12:12:12;2.70;;;2.60;;
27802;SDS011;15182;48.174;11.562;2024-03-23T12:14:42;2.77;;;2.37;;
27802;SDS011;15182;48.174;11.562;2024-03-23T12:17:10;2.80;;;2.70;;
27802;SDS011;15182;48.174;11.562;2024-03-23T12:19:39;2.40;;;2.40;;
27802;SDS011;15182;48.174;11.562;2024-03-23T12:22:07;2.50;;;2.50;;
27802;SDS011;15182;48.174;11.562;2024-03-23T12:24:35;2.50;;;2.50;;
27802;SDS011;15182;48.174;11.562;2024-03-23T12:27:03;3.07;;;2.87;;
27802;SDS011;15182;48.174;11.562;2024-03-23T12:29:33;2.87;;;2.67;;
27802;SDS011;15182;48.174;11.562;2024-03-23T12:32:01;2.43;;;2.43;;
27802;SDS011;15182;48.174;11.562;2024-03-23T12:34:30;2.70;;;2.60;;
27802;SDS011;15182;48.174;11.562;2024-03-23T12:36:56;2.93;;;2.87;;
27802;SDS011;15182;48.174;11.562;2024-03-23T12:39:24;2.80;;;2.70;;
27802;SDS011;15182;48.174;11.562;2024-03-23T12:41:51;2.63;;;2.63;;
27802;SDS011;15182;48.174;11.562;2024-03-23T12:44:19;2.80;;;2.73;;
27802;SDS011;15182;48.174;11.562;2024-03-23T12:46:48;3.40;;;3.20;;
27802;SDS011;15182;48.174;11.562;2024-03-23T12:49:15;2.77;;;2.67;;
27802;SDS011;15182;48.174;11.562;2024-03-23T12:51:46;2.97;;;2.87;;
27802;SDS011;15182;48.174;11.562;2024-03-23T12:54:21;2.80;;;2.70;;
27802;SDS011;15182;48.174;11.562;2024-03-23T12:56:49;2.80;;;2.80;;
27802;SDS011;15182;48.174;11.562;2024-03-23T12:59:16;3.07;;;3.07;;
27802;SDS011;15182;48.174;11.562;2024-03-23T13:01:44;3.13;;;2.93;;
27802;SDS011;15182;48.174;11.562;2024-03-23T13:04:13;2.83;;;2.73;;
27802;SDS011;15182;48.174;11.562;2024-03-23T13:06:40;6.50;;;2.83;;
27802;SDS011;15182;48.174;11.562;2024-03-23T13:09:07;3.10;;;2.90;;
27802;SDS011;15182;48.174;11.562;2024-03-23T13:11:34;2.60;;;2.60;;
27802;SDS011;15182;48.174;11.562;2024-03-23T13:14:02;3.13;;;3.13;;
27802;SDS011;15182;48.174;11.562;2024-03-23T13:16:29;3.17;;;3.00;;
27802;SDS011;15182;48.174;11.562;2024-03-23T13:18:57;3.07;;;2.90;;
27802;SDS011;15182;48.174;11.562;2024-03-23T13:21:26;3.30;;;2.90;;
27802;SDS011;15182;48.174;11.562;2024-03-23T13:23:53;3.47;;;3.17;;
27802;SDS011;15182;48.174;11.562;2024-03-23T13:26:21;3.23;;;2.87;;
27802;SDS011;15182;48.174;11.562;2024-03-23T13:28:48;3.23;;;3.13;;
27802;SDS011;15182;48.174;11.562;2024-03-23T13:31:15;2.97;;;2.77;;
27802;SDS011;15182;48.174;11.562;2024-03-23T13:33:43;3.13;;;2.93;;
27802;SDS011;15182;48.174;11.562;2024-03-23T13:36:10;3.10;;;2.90;;
27802;SDS011;15182;48.174;11.562;2024-03-23T13:38:40;2.93;;;2.93;;
27802;SDS011;15182;48.174;11.562;2024-03-23T13:41:07;3.37;;;3.07;;
27802;SDS011;15182;48.174;11.562;2024-03-23T13:43:38;2.97;;;2.83;;
27802;SDS011;15182;48.174;11.562;2024-03-23T13:46:06;3.47;;;3.17;;
27802;SDS011;15182;48.174;11.562;2024-03-23T13:48:34;3.47;;;3.37;;
27802;SDS011;15182;48.174;11.562;2024-03-23T13:51:01;3.40;;;3.20;;
27802;SDS011;15182;48.174;11.562;2024-03-23T13:53:30;3.77;;;3.50;;
27802;SDS011;15182;48.174;11.562;2024-03-23T13:55:59;3.73;;;3.33;;
27802;SDS011;15182;48.174;11.562;2024-03-23T13:58:29;3.50;;;3.30;;
27802;SDS011;15182;48.174;11.562;2024-03-23T14:00:56;4.73;;;3.67;;
27802;SDS011;15182;48.174;11.562;2024-03-23T14:03:24;3.77;;;3.57;;
27802;SDS011;15182;48.174;11.562;2024-03-23T14:05:51;3.90;;;3.60;;
27802;SDS011;15182;48.174;11.562;2024-03-23T14:08:20;3.43;;;3.33;;
27802;SDS011;15182;48.174;11.562;2024-03-23T14:10:47;3.57;;;3.47;;
27802;SDS011;15182;48.174;11.562;2024-03-23T14:13:16;3.07;;;2.97;;
27802;SDS011;15182;48.174;11.562;2024-03-23T14:15:44;3.43;;;3.33;;
27802;SDS011;15182;48.174;11.562;2024-03-23T14:18:11;3.67;;;3.57;;
27802;SDS011;15182;48.174;11.562;2024-03-23T14:20:39;3.70;;;3.50;;
27802;SDS011;15182;48.174;11.562;2024-03-23T14:23:07;4.33;;;3.83;;
27802;SDS011;15182;48.174;11.562;2024-03-23T14:25:33;3.90;;;3.60;;
27802;SDS011;15182;48.174;11.562;2024-03-23T14:28:01;3.37;;;3.27;;
27802;SDS011;15182;48.174;11.562;2024-03-23T14:30:30;3.80;;;3.60;;
27802;SDS011;15182;48.174;11.562;2024-03-23T14:32:58;3.60;;;3.30;;
27802;SDS011;15182;48.174;11.562;2024-03-23T14:35:25;3.23;;;3.10;;
27802;SDS011;15182;48.174;11.562;2024-03-23T14:37:53;3.60;;;3.20;;
27802;SDS011;15182;48.174;11.562;2024-03-23T14:40:19;3.87;;;3.57;;
27802;SDS011;15182;48.174;11.562;2024-03-23T14:42:47;3.30;;;2.80;;
27802;SDS011;15182;48.174;11.562;2024-03-23T14:45:14;3.27;;;3.13;;
27802;SDS011;15182;48.174;11.562;2024-03-23T14:47:43;3.17;;;3.07;;
27802;SDS011;15182;48.174;11.562;2024-03-23T14:50:10;2.73;;;2.63;;
27802;SDS011;15182;48.174;11.562;2024-03-23T14:52:41;2.77;;;2.60;;
27802;SDS011;15182;48.174;11.562;2024-03-23T14:55:10;3.00;;;2.90;;
27802;SDS011;15182;48.174;11.562;2024-03-23T14:57:38;3.40;;;3.30;;
27802;SDS011;15182;48.174;11.562;2024-03-23T15:00:05;3.10;;;2.87;;
27802;SDS011;15182;48.174;11.562;2024-03-23T15:02:36;3.87;;;3.57;;
27802;SDS011;15182;48.174;11.562;2024-03-23T15:05:05;5.40;;;2.80;;
27802;SDS011;15182;48.174;11.562;2024-03-23T15:07:35;2.37;;;2.37;;
27802;SDS011;15182;48.174;11.562;2024-03-23T15:10:03;2.90;;;2.73;;
27802;SDS011;15182;48.174;11.562;2024-03-23T15:12:34;3.10;;;3.00;;
27802;SDS011;15182;48.174;11.562;2024-03-23T15:15:00;2.80;;;2.70;;
27802;SDS011;15182;48.174;11.562;2024-03-23T15:17:28;3.17;;;2.97;;
27802;SDS011;15182;48.174;11.562;2024-03-23T15:19:55;2.67;;;2.60;;
27802;SDS011;15182;48.174;11.562;2024-03-23T15:22:24;3.13;;;2.93;;
27802;SDS011;15182;48.174;11.562;2024-03-23T15:24:51;3.23;;;3.03;;
27802;SDS011;15182;48.174;11.562;2024-03-23T15:27:18;2.80;;;2.70;;
27802;SDS011;15182;48.174;11.562;2024-03-23T15:29:45;3.50;;;3.20;;
27802;SDS011;15182;48.174;11.562;2024-03-23T15:32:13;3.10;;;2.90;;
27802;SDS011;15182;48.174;11.562;2024-03-23T15:34:40;3.40;;;3.20;;
27802;SDS011;15182;48.174;11.562;2024-03-23T15:37:08;3.20;;;3.10;;
27802;SDS011;15182;48.174;11.562;2024-03-23T15:39:36;3.67;;;3.37;;
27802;SDS011;15182;48.174;11.562;2024-03-23T15:42:04;3.03;;;3.00;;
27802;SDS011;15182;48.174;11.562;2024-03-23T15:44:32;2.83;;;2.73;;